Sao Jose do Barreiro, Brazil
Current Conditions -  °F | °C
As of 9:00 PM on Thursday 27 Nov 2014 (Local Time) from SBGW Reporting Station
Broken Clouds Broken Clouds  
Wind Chill: 72°   Ceiling: 800
Heat Index: 72°   Visibility: 5mi
Dew Point: 68°   Wind: 3mph
Humidity: 88%   Direction: 40°NE
Pressure: 29.94"   Gusts: NA
Location:  22.65°S, 44.58°W
Report Text: SBGW 272300Z 04003KT 8000 BKN008 BKN020 BKN080 22/20 Q1014
Loading
Personal Weather Stations






























Interactive Weather Map New forecast layout! Learn more

10-Day Weather Forecast

Advertisements
Track Severe Weather on mobile